Time;durP1;ratioP1;P1;durP2;ratioP2;P2;SDS_P1;SDS_P2;PMS_P1;PMS_P2;Temp;Humidity;BMP_temperature;BMP_pressure;BME280_temperature;BME280_humidity;BME280_pressure;Samples;Min_cycle;Max_cycle;Signal;HPM_P1;HPM_P2
2023/10/24 00:01:13;;;;;;;1.17;1.08;;;14.30;99.90;;;;;;7394598;19;20127;-81
2023/10/24 00:03:38;;;;;;;2.80;1.40;;;14.40;99.90;;;;;;7392991;19;20123;-81
2023/10/24 00:06:04;;;;;;;1.38;1.27;;;14.60;99.90;;;;;;7393905;19;20146;-81
2023/10/24 00:08:30;;;;;;;1.20;1.10;;;14.40;99.90;;;;;;7393675;19;20604;-82
2023/10/24 00:11:03;;;;;;;1.75;1.58;;;14.40;99.90;;;;;;7392342;19;20488;-82
2023/10/24 00:13:30;;;;;;;3.97;1.33;;;14.40;99.90;;;;;;7394840;19;20139;-82
2023/10/24 00:15:57;;;;;;;1.40;0.98;;;14.50;99.90;;;;;;7392801;19;20143;-82
2023/10/24 00:18:27;;;;;;;1.10;1.00;;;14.50;99.90;;;;;;7394524;19;20572;-81
2023/10/24 00:20:53;;;;;;;1.52;1.10;;;14.20;99.90;;;;;;7394527;19;20608;-81
2023/10/24 00:23:20;;;;;;;1.20;1.08;;;14.10;99.90;;;;;;7393573;19;20142;-81
2023/10/24 00:25:46;;;;;;;1.73;1.05;;;14.00;99.90;;;;;;7389921;19;20171;-81
2023/10/24 00:28:12;;;;;;;1.65;1.50;;;14.10;99.90;;;;;;7396333;19;20126;-81
2023/10/24 00:30:39;;;;;;;1.40;1.05;;;14.20;99.90;;;;;;7391723;19;20131;-81
2023/10/24 00:33:05;;;;;;;1.58;1.25;;;14.20;99.90;;;;;;7393717;19;20172;-82
2023/10/24 00:35:32;;;;;;;1.17;1.08;;;14.30;99.90;;;;;;7394704;19;20127;-81
2023/10/24 00:37:58;;;;;;;1.70;1.20;;;14.30;99.90;;;;;;7393807;19;20139;-80
2023/10/24 00:40:24;;;;;;;1.23;1.10;;;14.40;99.90;;;;;;7393122;19;20138;-81
2023/10/24 00:42:50;;;;;;;1.52;1.10;;;14.40;99.90;;;;;;7393837;19;20697;-80
2023/10/24 00:45:16;;;;;;;3.17;1.42;;;14.40;99.90;;;;;;7390192;19;20131;-81
2023/10/24 00:47:43;;;;;;;2.78;1.25;;;14.40;99.90;;;;;;7392792;19;20138;-80
2023/10/24 00:50:09;;;;;;;1.17;0.88;;;14.20;99.90;;;;;;7391226;19;20141;-81
2023/10/24 00:52:37;;;;;;;1.60;1.05;;;14.20;99.90;;;;;;7392951;19;20276;-81
2023/10/24 00:55:05;;;;;;;1.90;0.95;;;14.30;99.90;;;;;;7393315;19;20154;-81
2023/10/24 00:57:31;;;;;;;2.25;1.10;;;14.40;99.90;;;;;;7392732;19;20191;-81
2023/10/24 00:59:57;;;;;;;1.73;1.27;;;14.20;99.90;;;;;;7392583;19;20133;-80
2023/10/24 01:02:23;;;;;;;1.02;0.93;;;14.20;99.90;;;;;;7390952;19;20187;-83
2023/10/24 01:04:53;;;;;;;0.98;0.93;;;14.30;99.90;;;;;;7393143;19;20174;-82
2023/10/24 01:07:19;;;;;;;1.30;0.98;;;14.30;99.90;;;;;;7389979;19;20174;-84
2023/10/24 01:09:45;;;;;;;1.40;1.00;;;14.00;99.90;;;;;;7393786;19;20475;-84
2023/10/24 01:12:11;;;;;;;0.80;0.80;;;14.10;99.90;;;;;;7392433;19;20213;-83
2023/10/24 01:14:36;;;;;;;4.38;1.08;;;14.20;99.90;;;;;;7392763;19;20150;-83
2023/10/24 01:17:10;;;;;;;1.05;0.95;;;14.20;99.90;;;;;;7392445;19;20146;-82
2023/10/24 01:19:35;;;;;;;1.10;1.00;;;14.10;99.90;;;;;;7393290;19;20163;-82
2023/10/24 01:22:01;;;;;;;1.30;1.00;;;13.90;99.90;;;;;;7392855;19;20130;-83
2023/10/24 01:24:28;;;;;;;1.30;1.10;;;14.00;99.90;;;;;;7393448;19;20595;-82
2023/10/24 01:26:58;;;;;;;1.35;1.20;;;14.00;99.90;;;;;;7394167;19;20169;-82
2023/10/24 01:29:24;;;;;;;1.10;0.80;;;14.00;99.90;;;;;;7402287;19;20583;-83
2023/10/24 01:31:50;;;;;;;1.10;1.00;;;14.10;99.90;;;;;;7399345;19;20151;-83
2023/10/24 01:34:16;;;;;;;1.13;0.98;;;14.30;99.90;;;;;;7398783;19;20141;-83
2023/10/24 01:36:42;;;;;;;1.40;1.30;;;14.40;99.90;;;;;;7399608;19;20139;-83
2023/10/24 01:39:08;;;;;;;1.02;0.93;;;14.40;99.90;;;;;;7401031;19;20142;-82
2023/10/24 01:41:34;;;;;;;2.13;1.60;;;14.10;99.90;;;;;;7402589;19;20151;-82
2023/10/24 01:44:00;;;;;;;1.48;1.05;;;14.30;99.90;;;;;;7400907;19;20499;-83
2023/10/24 01:46:25;;;;;;;2.70;1.48;;;14.20;99.90;;;;;;7400429;19;20142;-83
2023/10/24 01:48:51;;;;;;;1.40;1.30;;;14.40;99.90;;;;;;7399710;19;20131;-82
2023/10/24 01:51:17;;;;;;;1.98;1.45;;;14.40;99.90;;;;;;7395972;19;20143;-83
2023/10/24 01:53:43;;;;;;;1.30;1.20;;;14.40;99.90;;;;;;7398472;19;20198;-83
2023/10/24 01:56:12;;;;;;;1.42;1.02;;;14.50;99.90;;;;;;7400878;19;20599;-81
2023/10/24 01:58:39;;;;;;;1.88;1.60;;;14.50;99.90;;;;;;7399074;19;20134;-82
2023/10/24 02:01:05;;;;;;;1.40;1.23;;;14.40;99.90;;;;;;7400871;19;20135;-82
2023/10/24 02:03:31;;;;;;;1.13;1.02;;;14.40;99.90;;;;;;7397867;19;20161;-82
2023/10/24 02:05:58;;;;;;;1.42;1.33;;;14.20;99.90;;;;;;7398221;19;20150;-83
2023/10/24 02:08:24;;;;;;;1.10;1.00;;;14.20;99.90;;;;;;7398202;19;20563;-82
2023/10/24 02:10:50;;;;;;;1.20;1.10;;;14.10;99.90;;;;;;7398530;19;20616;-82
2023/10/24 02:13:17;;;;;;;1.05;1.02;;;14.30;99.90;;;;;;7397530;19;20146;-82
2023/10/24 02:15:43;;;;;;;1.90;1.02;;;14.10;99.90;;;;;;7397105;19;20131;-82
2023/10/24 02:18:08;;;;;;;1.20;1.00;;;14.20;99.90;;;;;;7397099;19;20618;-82
2023/10/24 02:20:36;;;;;;;1.70;1.27;;;14.30;99.90;;;;;;7396891;19;20130;-83
2023/10/24 02:23:04;;;;;;;1.05;0.95;;;14.30;99.90;;;;;;7398523;19;20198;-83
2023/10/24 02:25:34;;;;;;;1.58;1.00;;;14.30;99.90;;;;;;7396443;19;20127;-83
2023/10/24 02:28:00;;;;;;;0.77;0.77;;;14.30;99.90;;;;;;7397870;19;20150;-81
2023/10/24 02:30:26;;;;;;;1.25;1.10;;;14.30;99.90;;;;;;7395556;19;20596;-83
2023/10/24 02:32:51;;;;;;;1.05;0.95;;;14.20;99.90;;;;;;7397860;19;20151;-83
2023/10/24 02:35:17;;;;;;;1.23;1.13;;;14.20;99.90;;;;;;7397408;19;20595;-82
2023/10/24 02:37:43;;;;;;;1.45;1.33;;;14.10;99.90;;;;;;7397577;19;20834;-83
2023/10/24 02:40:10;;;;;;;1.48;1.00;;;13.80;99.90;;;;;;7395241;19;20159;-83
2023/10/24 02:42:35;;;;;;;1.52;1.40;;;13.80;99.90;;;;;;7397457;19;20138;-82
2023/10/24 02:45:01;;;;;;;1.80;1.10;;;14.00;99.90;;;;;;7396763;19;20489;-81
2023/10/24 02:47:27;;;;;;;1.10;0.90;;;14.20;99.90;;;;;;7400363;19;20139;-82
2023/10/24 02:49:54;;;;;;;1.40;1.02;;;14.40;99.90;;;;;;7395712;19;20489;-83
2023/10/24 02:52:20;;;;;;;2.35;1.30;;;14.40;99.90;;;;;;7396234;19;20247;-83
2023/10/24 02:55:03;;;;;;;0.90;0.85;;;14.50;99.90;;;;;;7391372;19;20164;-81
2023/10/24 02:57:28;;;;;;;1.35;1.25;;;14.40;99.90;;;;;;7396749;19;20515;-82
2023/10/24 02:59:54;;;;;;;2.17;1.10;;;14.40;99.90;;;;;;7395302;19;20147;-83
2023/10/24 03:02:20;;;;;;;1.27;1.15;;;14.40;99.90;;;;;;7396723;19;20145;-82
2023/10/24 03:04:46;;;;;;;1.45;1.20;;;14.50;99.90;;;;;;7395110;19;20843;-82
2023/10/24 03:07:12;;;;;;;1.17;1.00;;;14.40;99.90;;;;;;7393949;19;20241;-82
2023/10/24 03:09:37;;;;;;;1.27;1.13;;;14.40;99.90;;;;;;7396081;19;20572;-82
2023/10/24 03:12:09;;;;;;;1.55;1.42;;;14.40;99.90;;;;;;7395413;19;20150;-82
2023/10/24 03:14:36;;;;;;;1.90;1.25;;;14.30;99.90;;;;;;7397151;19;20145;-81
2023/10/24 03:17:02;;;;;;;1.40;1.15;;;13.80;99.90;;;;;;7397990;19;20135;-82
2023/10/24 03:19:27;;;;;;;1.20;1.02;;;13.60;99.90;;;;;;7395171;19;20141;-82
2023/10/24 03:21:53;;;;;;;2.03;1.23;;;13.90;99.90;;;;;;7396378;19;20221;-82
2023/10/24 03:24:19;;;;;;;1.40;0.95;;;14.00;99.90;;;;;;7395172;19;20134;-82
2023/10/24 03:26:45;;;;;;;1.52;1.20;;;13.70;99.90;;;;;;7395836;19;20135;-82
2023/10/24 03:29:11;;;;;;;1.48;1.20;;;13.60;99.90;;;;;;7395606;19;20619;-82
2023/10/24 03:31:36;;;;;;;1.15;1.13;;;13.90;99.90;;;;;;7394716;19;20146;-81
2023/10/24 03:34:02;;;;;;;2.03;1.17;;;13.70;99.90;;;;;;7395893;19;20134;-82
2023/10/24 03:36:28;;;;;;;1.00;0.90;;;13.60;99.90;;;;;;7393497;19;20469;-82
2023/10/24 03:38:54;;;;;;;1.40;1.10;;;13.80;99.90;;;;;;7394726;19;20158;-83
2023/10/24 03:41:20;;;;;;;2.03;1.10;;;13.80;99.90;;;;;;7394111;19;20144;-83
2023/10/24 03:43:48;;;;;;;1.50;1.08;;;14.00;99.90;;;;;;7393669;19;20150;-84
2023/10/24 03:46:14;;;;;;;1.30;1.02;;;14.20;99.90;;;;;;7395443;19;20138;-83
2023/10/24 03:48:41;;;;;;;1.10;1.00;;;14.30;99.90;;;;;;7394892;19;20147;-83
2023/10/24 03:51:06;;;;;;;1.10;1.00;;;14.30;99.90;;;;;;7390758;19;20146;-83
2023/10/24 03:53:32;;;;;;;1.35;1.25;;;14.10;99.90;;;;;;7393053;19;20506;-84
2023/10/24 03:55:59;;;;;;;1.27;0.90;;;13.90;99.90;;;;;;7394963;19;20146;-83
2023/10/24 03:58:25;;;;;;;1.25;1.02;;;14.00;99.90;;;;;;7396257;19;20146;-84
2023/10/24 04:00:52;;;;;;;1.27;1.17;;;14.10;99.90;;;;;;7398026;19;20137;-90
2023/10/24 04:03:19;;;;;;;1.10;0.98;;;14.30;99.90;;;;;;7399876;19;20178;-85
2023/10/24 04:05:45;;;;;;;1.83;1.20;;;14.40;99.90;;;;;;7396426;19;20147;-84
2023/10/24 04:08:11;;;;;;;2.13;1.05;;;14.50;99.90;;;;;;7395548;19;20166;-85
2023/10/24 04:10:37;;;;;;;1.17;0.98;;;14.50;99.90;;;;;;7395783;19;20139;-85
2023/10/24 04:13:03;;;;;;;1.30;1.20;;;14.50;99.90;;;;;;7395996;19;20135;-84
2023/10/24 04:15:29;;;;;;;2.05;1.33;;;14.50;99.90;;;;;;7395722;19;20167;-84
2023/10/24 04:17:56;;;;;;;2.75;0.95;;;14.60;99.90;;;;;;7394760;19;20597;-85
2023/10/24 04:20:21;;;;;;;1.38;1.23;;;14.40;99.90;;;;;;7397992;19;20149;-85
2023/10/24 04:22:47;;;;;;;3.50;1.40;;;14.40;99.90;;;;;;7399937;19;20146;-91
2023/10/24 04:25:13;;;;;;;1.77;1.63;;;14.40;99.90;;;;;;7399012;19;20222;-85
2023/10/24 04:27:39;;;;;;;2.40;1.17;;;14.40;99.90;;;;;;7395739;19;20171;-84
2023/10/24 04:30:06;;;;;;;2.97;1.23;;;14.20;99.90;;;;;;7396835;19;20476;-85
2023/10/24 04:32:32;;;;;;;1.20;1.10;;;14.30;99.90;;;;;;7395833;19;20131;-83
2023/10/24 04:35:00;;;;;;;2.33;1.42;;;14.40;99.90;;;;;;7395117;19;20142;-83
2023/10/24 04:37:26;;;;;;;2.20;1.40;;;14.40;99.90;;;;;;7394241;19;20131;-84
2023/10/24 04:39:53;;;;;;;2.15;1.42;;;14.30;99.90;;;;;;7393542;19;20131;-86
2023/10/24 04:42:19;;;;;;;1.70;1.35;;;14.20;99.90;;;;;;7393259;19;20656;-84
2023/10/24 04:44:45;;;;;;;1.33;1.23;;;14.20;99.90;;;;;;7395333;19;20151;-85
2023/10/24 04:47:10;;;;;;;2.67;1.23;;;14.30;99.90;;;;;;7394594;19;20161;-85
2023/10/24 04:49:36;;;;;;;5.32;1.92;;;14.40;99.90;;;;;;7394519;19;20139;-85
2023/10/24 04:52:03;;;;;;;2.33;1.48;;;14.40;99.90;;;;;;7393340;19;20503;-85
2023/10/24 04:54:29;;;;;;;3.00;1.63;;;14.40;99.90;;;;;;7393337;19;20134;-84
2023/10/24 04:56:58;;;;;;;1.23;1.05;;;14.40;99.90;;;;;;7393506;19;20480;-85
2023/10/24 04:59:24;;;;;;;1.48;1.25;;;14.10;99.90;;;;;;7394342;19;20131;-84
2023/10/24 05:01:49;;;;;;;1.90;1.48;;;14.00;99.90;;;;;;7395820;19;20667;-84
2023/10/24 05:04:15;;;;;;;1.52;1.40;;;14.20;99.90;;;;;;7401788;19;20437;-86
2023/10/24 05:06:44;;;;;;;1.30;1.00;;;14.30;99.90;;;;;;7397688;19;20182;-84
2023/10/24 05:09:11;;;;;;;1.50;1.40;;;14.20;99.90;;;;;;7402189;19;20705;-85
2023/10/24 05:11:39;;;;;;;1.90;1.30;;;13.90;99.90;;;;;;7397733;19;20163;-83
2023/10/24 05:14:05;;;;;;;2.80;1.25;;;13.80;99.90;;;;;;7399607;19;20129;-84
2023/10/24 05:16:31;;;;;;;1.33;1.23;;;13.80;99.90;;;;;;7400264;19;20181;-85
2023/10/24 05:18:57;;;;;;;2.15;1.52;;;13.90;99.90;;;;;;7399660;19;20143;-83
2023/10/24 05:21:23;;;;;;;1.80;1.63;;;13.90;99.90;;;;;;7401673;19;20595;-84
2023/10/24 05:23:51;;;;;;;1.88;1.40;;;14.00;99.90;;;;;;7401841;19;20154;-84
2023/10/24 05:26:20;;;;;;;1.33;1.20;;;14.20;99.90;;;;;;7399860;19;20131;-86
2023/10/24 05:28:47;;;;;;;1.50;1.00;;;14.20;99.90;;;;;;7397952;19;20447;-86
2023/10/24 05:31:13;;;;;;;2.15;1.63;;;14.30;99.90;;;;;;7396946;19;20131;-84
2023/10/24 05:33:38;;;;;;;1.17;1.08;;;14.40;99.90;;;;;;7399527;19;20472;-83
2023/10/24 05:36:04;;;;;;;2.55;1.40;;;14.40;99.90;;;;;;7397901;19;20749;-84
2023/10/24 05:38:32;;;;;;;1.95;1.38;;;14.30;99.90;;;;;;7398586;19;20146;-83
2023/10/24 05:40:59;;;;;;;1.83;1.40;;;14.00;99.90;;;;;;7398678;19;20161;-83
2023/10/24 05:43:25;;;;;;;2.35;1.27;;;14.10;99.90;;;;;;7400559;19;20161;-84
2023/10/24 05:45:51;;;;;;;0.95;0.93;;;14.20;99.90;;;;;;7400514;19;20131;-84
2023/10/24 05:48:17;;;;;;;1.50;1.05;;;14.00;99.90;;;;;;7399820;19;20135;-85
2023/10/24 05:50:46;;;;;;;2.92;1.63;;;13.90;99.90;;;;;;7397727;19;20127;-87
2023/10/24 05:53:12;;;;;;;1.73;1.02;;;13.80;99.90;;;;;;7399448;19;20180;-85
2023/10/24 05:55:39;;;;;;;1.92;1.27;;;13.90;99.90;;;;;;7399235;19;20172;-83
2023/10/24 05:58:05;;;;;;;1.70;1.38;;;13.90;99.90;;;;;;7400214;19;20142;-84
2023/10/24 06:00:31;;;;;;;1.30;1.02;;;13.90;99.90;;;;;;7397516;19;20163;-83
2023/10/24 06:02:57;;;;;;;0.93;0.88;;;14.10;99.90;;;;;;7399207;19;20130;-84
2023/10/24 06:05:22;;;;;;;1.55;1.35;;;14.30;99.90;;;;;;7397957;19;20165;-83
2023/10/24 06:07:48;;;;;;;2.08;1.63;;;14.30;99.90;;;;;;7396397;19;20151;-84
2023/10/24 06:10:15;;;;;;;1.50;1.40;;;14.10;99.90;;;;;;7398132;19;20158;-83
2023/10/24 06:12:41;;;;;;;1.67;1.50;;;14.00;99.90;;;;;;7399706;19;20146;-81
2023/10/24 06:15:08;;;;;;;2.03;1.40;;;13.80;99.90;;;;;;7396496;19;20610;-83
2023/10/24 06:17:35;;;;;;;2.40;1.85;;;13.50;99.90;;;;;;7398383;19;20612;-83
2023/10/24 06:20:04;;;;;;;2.65;1.52;;;13.70;99.90;;;;;;7398296;19;20163;-85
2023/10/24 06:22:31;;;;;;;1.88;1.38;;;13.90;99.90;;;;;;7397925;19;20139;-83
2023/10/24 06:25:00;;;;;;;5.80;4.40;;;13.90;99.90;;;;;;7397466;19;20667;-84
2023/10/24 06:27:27;;;;;;;3.58;2.22;;;13.90;99.90;;;;;;7398059;19;20155;-84
2023/10/24 06:29:52;;;;;;;2.00;1.73;;;14.00;99.90;;;;;;7399003;19;20592;-84
2023/10/24 06:32:18;;;;;;;1.55;1.35;;;14.20;99.90;;;;;;7399684;19;20146;-85
2023/10/24 06:34:44;;;;;;;2.33;1.38;;;14.20;99.90;;;;;;7400144;19;20151;-81
2023/10/24 06:37:10;;;;;;;1.70;1.42;;;14.40;99.90;;;;;;7397401;19;20137;-82
2023/10/24 06:39:36;;;;;;;2.13;1.60;;;14.50;99.90;;;;;;7396466;19;20131;-82
2023/10/24 06:42:02;;;;;;;1.55;1.25;;;14.60;99.90;;;;;;7394956;19;20151;-80
2023/10/24 06:44:28;;;;;;;1.92;1.20;;;14.50;99.90;;;;;;7396062;19;20154;-82
2023/10/24 06:46:53;;;;;;;3.50;1.50;;;14.50;99.90;;;;;;7396835;19;20496;-81
2023/10/24 06:49:21;;;;;;;3.33;1.52;;;14.50;99.90;;;;;;7400722;19;20134;-84
2023/10/24 06:51:47;;;;;;;1.30;1.17;;;14.30;99.90;;;;;;7398002;19;20779;-83
2023/10/24 06:54:13;;;;;;;1.30;1.20;;;14.50;99.90;;;;;;7395109;19;20146;-83
2023/10/24 06:56:38;;;;;;;2.70;1.60;;;14.60;99.90;;;;;;7394324;19;20142;-82
2023/10/24 06:59:05;;;;;;;2.13;1.67;;;14.50;99.90;;;;;;7396330;19;20134;-82
2023/10/24 07:01:31;;;;;;;1.98;1.33;;;14.50;99.90;;;;;;7394003;19;20171;-82
2023/10/24 07:03:58;;;;;;;1.50;1.30;;;14.50;99.90;;;;;;7396411;19;20626;-85
2023/10/24 07:06:24;;;;;;;1.02;0.93;;;14.50;99.90;;;;;;7394813;19;20199;-84
2023/10/24 07:08:51;;;;;;;3.03;1.70;;;14.50;99.90;;;;;;7394933;19;20495;-85
2023/10/24 07:11:17;;;;;;;1.30;1.20;;;14.50;99.90;;;;;;7393983;19;20146;-82
2023/10/24 07:13:43;;;;;;;2.38;1.65;;;14.60;99.90;;;;;;7395871;19;20142;-81
2023/10/24 07:16:13;;;;;;;2.65;1.30;;;14.70;99.90;;;;;;7394153;19;20152;-82
2023/10/24 07:18:39;;;;;;;1.63;1.33;;;14.70;99.90;;;;;;7394001;19;20612;-82
2023/10/24 07:21:05;;;;;;;2.17;1.75;;;14.80;99.90;;;;;;7394477;19;20156;-84
2023/10/24 07:23:31;;;;;;;1.85;1.25;;;14.80;99.90;;;;;;7397409;19;20126;-84
2023/10/24 07:25:57;;;;;;;2.55;1.63;;;14.80;99.90;;;;;;7402368;19;20168;-85
2023/10/24 07:28:23;;;;;;;1.42;1.33;;;14.70;99.90;;;;;;7414240;19;20159;-83
2023/10/24 07:30:51;;;;;;;1.77;1.48;;;14.60;99.90;;;;;;7404234;19;20546;-84
2023/10/24 07:33:21;;;;;;;2.78;1.92;;;14.50;99.90;;;;;;7403762;19;20137;-84
2023/10/24 07:35:48;;;;;;;1.73;1.45;;;14.60;99.90;;;;;;7398854;19;20140;-84
2023/10/24 07:38:14;;;;;;;2.05;1.73;;;14.60;99.90;;;;;;7402067;19;20126;-82
2023/10/24 07:40:40;;;;;;;2.45;1.75;;;14.50;99.90;;;;;;7394480;19;20157;-82
2023/10/24 07:43:05;;;;;;;2.58;2.00;;;14.40;99.90;;;;;;7396586;19;20198;-83
2023/10/24 07:45:31;;;;;;;1.70;1.55;;;14.10;99.90;;;;;;7398546;19;20131;-83
2023/10/24 07:47:57;;;;;;;2.22;1.65;;;13.90;99.90;;;;;;7396509;19;20643;-85
2023/10/24 07:50:23;;;;;;;2.95;1.50;;;13.90;99.90;;;;;;7396018;19;20159;-84
2023/10/24 07:52:49;;;;;;;2.63;1.65;;;13.90;99.90;;;;;;7396767;19;20138;-83
2023/10/24 07:55:14;;;;;;;2.50;1.90;;;14.20;99.90;;;;;;7398517;19;20651;-85
2023/10/24 07:57:40;;;;;;;2.45;2.15;;;14.20;99.90;;;;;;7397705;19;20424;-85
2023/10/24 08:00:07;;;;;;;1.48;1.38;;;14.30;99.90;;;;;;7396739;19;20226;-85
2023/10/24 08:02:33;;;;;;;1.60;1.38;;;14.50;99.90;;;;;;7394740;19;20137;-84
2023/10/24 08:04:59;;;;;;;5.45;1.70;;;14.60;99.90;;;;;;7393527;19;20139;-84
2023/10/24 08:07:26;;;;;;;3.20;1.95;;;14.60;99.90;;;;;;7392726;19;20192;-84
2023/10/24 08:09:52;;;;;;;2.63;2.08;;;14.60;99.90;;;;;;7393567;19;20167;-83
2023/10/24 08:12:18;;;;;;;4.30;2.17;;;14.60;99.90;;;;;;7394407;19;20548;-83
2023/10/24 08:14:44;;;;;;;2.08;1.75;;;14.50;99.90;;;;;;7394534;19;20146;-83
2023/10/24 08:17:10;;;;;;;2.97;2.00;;;14.60;99.90;;;;;;7395442;19;20462;-83
2023/10/24 08:19:36;;;;;;;3.38;1.80;;;14.50;99.90;;;;;;7393851;19;20154;-81
2023/10/24 08:22:02;;;;;;;2.67;1.90;;;14.50;99.90;;;;;;7394534;19;20278;-84
2023/10/24 08:24:29;;;;;;;2.78;2.45;;;14.50;99.90;;;;;;7394090;19;20243;-83
2023/10/24 08:26:55;;;;;;;2.45;1.88;;;14.40;99.90;;;;;;7395906;19;20168;-83
2023/10/24 08:29:22;;;;;;;3.53;1.95;;;14.40;99.90;;;;;;7394936;19;20134;-82
2023/10/24 08:31:48;;;;;;;2.08;1.70;;;14.50;99.90;;;;;;7391763;19;20289;-83
2023/10/24 08:34:13;;;;;;;2.53;2.05;;;14.50;99.90;;;;;;7393413;19;20155;-81
2023/10/24 08:36:39;;;;;;;2.20;1.77;;;14.50;99.90;;;;;;7392011;19;20143;-82
2023/10/24 08:39:05;;;;;;;3.47;2.17;;;14.50;99.90;;;;;;7399722;19;20162;-82
2023/10/24 08:41:31;;;;;;;3.30;1.90;;;14.30;99.90;;;;;;7399101;19;20171;-81
2023/10/24 08:43:57;;;;;;;2.22;1.58;;;14.10;99.90;;;;;;7398757;19;20218;-81
2023/10/24 08:46:23;;;;;;;2.67;2.00;;;14.10;99.90;;;;;;7401128;19;20150;-82
2023/10/24 08:48:51;;;;;;;1.55;1.45;;;14.20;99.90;;;;;;7399232;19;20138;-82
2023/10/24 08:51:17;;;;;;;3.53;1.92;;;14.20;99.90;;;;;;7398377;19;20594;-82
2023/10/24 08:53:43;;;;;;;2.47;2.03;;;14.20;99.90;;;;;;7400178;19;20163;-81
2023/10/24 08:56:10;;;;;;;2.90;2.17;;;14.30;99.90;;;;;;7398202;19;20611;-81
2023/10/24 08:58:38;;;;;;;4.45;2.10;;;14.30;99.90;;;;;;7399124;19;20167;-81
2023/10/24 09:01:06;;;;;;;3.55;2.08;;;14.10;99.90;;;;;;7401416;19;20134;-81
2023/10/24 09:03:32;;;;;;;5.22;2.33;;;14.20;99.90;;;;;;7400959;19;20476;-81
2023/10/24 09:05:59;;;;;;;4.95;2.35;;;14.30;99.90;;;;;;7398040;19;20218;-82
2023/10/24 09:08:25;;;;;;;3.33;2.30;;;14.30;99.90;;;;;;7399136;19;20142;-81
2023/10/24 09:10:52;;;;;;;2.22;1.88;;;14.30;99.90;;;;;;7399493;19;20178;-83
2023/10/24 09:13:18;;;;;;;2.83;2.35;;;14.10;99.90;;;;;;7401601;19;20150;-83
2023/10/24 09:15:43;;;;;;;3.10;2.15;;;14.10;99.90;;;;;;7398787;19;20210;-83
2023/10/24 09:18:09;;;;;;;2.30;2.10;;;14.10;99.90;;;;;;7400760;19;20151;-85
2023/10/24 09:20:35;;;;;;;3.33;2.20;;;14.20;99.90;;;;;;7401311;19;20143;-84
2023/10/24 09:23:09;;;;;;;2.28;1.75;;;14.20;99.90;;;;;;7404659;19;20168;-87
2023/10/24 09:25:37;;;;;;;2.95;2.13;;;14.30;99.90;;;;;;7398001;19;20153;-85
2023/10/24 09:28:24;;;;;;;3.17;2.50;;;14.30;99.90;;;;;;7399939;19;20150;-86
2023/10/24 09:30:50;;;;;;;3.58;2.47;;;14.30;99.90;;;;;;7399059;19;20142;-87
2023/10/24 09:33:16;;;;;;;3.08;2.13;;;14.40;99.90;;;;;;7402786;19;20143;-87
2023/10/24 09:35:42;;;;;;;2.60;1.90;;;14.30;99.90;;;;;;7398592;19;20466;-82
2023/10/24 09:38:08;;;;;;;2.33;1.95;;;14.40;99.90;;;;;;7400328;19;20179;-81
2023/10/24 09:40:37;;;;;;;1.83;1.70;;;14.40;99.90;;;;;;7395014;19;20147;-83
2023/10/24 09:43:13;;;;;;;2.17;1.92;;;14.40;99.90;;;;;;7395163;19;20155;-80
2023/10/24 09:45:41;;;;;;;2.58;2.08;;;14.50;99.90;;;;;;7396252;19;20209;-81
2023/10/24 09:48:08;;;;;;;2.17;1.88;;;14.50;99.90;;;;;;7397949;19;20142;-80
2023/10/24 09:50:35;;;;;;;2.05;1.73;;;14.50;99.90;;;;;;7396664;19;20154;-81
2023/10/24 09:53:01;;;;;;;3.28;1.90;;;14.50;99.90;;;;;;7396894;19;20630;-81
2023/10/24 09:55:27;;;;;;;2.47;2.25;;;14.50;99.90;;;;;;7396663;19;20223;-82
2023/10/24 09:57:55;;;;;;;2.50;1.63;;;14.50;99.90;;;;;;7397048;19;20165;-81
2023/10/24 10:00:21;;;;;;;1.40;1.20;;;14.60;99.90;;;;;;7397556;19;20179;-81
2023/10/24 10:02:48;;;;;;;2.45;2.10;;;14.50;99.90;;;;;;7396843;19;20130;-82
2023/10/24 10:05:14;;;;;;;2.45;1.83;;;14.60;99.90;;;;;;7396101;19;20151;-81
2023/10/24 10:07:41;;;;;;;2.85;2.00;;;14.50;99.90;;;;;;7394689;19;20146;-81
2023/10/24 10:10:10;;;;;;;3.80;2.70;;;14.50;99.90;;;;;;7395680;19;20170;-80
2023/10/24 10:12:37;;;;;;;2.92;2.10;;;14.50;99.90;;;;;;7394565;19;20138;-80
2023/10/24 10:15:03;;;;;;;2.72;1.85;;;14.60;99.90;;;;;;7395724;19;20142;-79
2023/10/24 10:17:52;;;;;;;2.40;2.08;;;14.60;99.90;;;;;;7396529;19;20135;-80
2023/10/24 10:20:56;;;;;;;3.22;1.92;;;14.60;99.90;;;;;;7396338;19;20131;-80
2023/10/24 10:23:36;;;;;;;3.65;2.83;;;14.60;99.90;;;;;;7396696;19;20143;-80
2023/10/24 10:26:40;;;;;;;2.80;2.28;;;14.60;99.90;;;;;;7395853;19;20145;-80
2023/10/24 10:29:37;;;;;;;4.25;2.80;;;14.70;99.90;;;;;;7393559;19;20142;-82
2023/10/24 10:32:18;;;;;;;2.78;2.22;;;14.70;99.90;;;;;;7394925;19;20146;-80
2023/10/24 10:34:44;;;;;;;4.45;2.80;;;14.70;99.90;;;;;;7396371;19;20202;-80
2023/10/24 10:37:09;;;;;;;2.90;2.55;;;14.70;99.90;;;;;;7394031;19;20146;-81
2023/10/24 10:39:37;;;;;;;4.53;2.72;;;14.50;99.90;;;;;;7399268;19;20509;-79
2023/10/24 10:42:02;;;;;;;4.78;2.70;;;14.40;99.90;;;;;;7395183;19;20145;-80
2023/10/24 10:44:40;;;;;;;2.50;2.22;;;14.50;99.90;;;;;;7394171;19;20611;-80
2023/10/24 10:47:08;;;;;;;4.22;2.50;;;14.60;99.90;;;;;;7396407;19;20146;-81
2023/10/24 10:49:40;;;;;;;5.97;3.33;;;14.50;99.90;;;;;;7395737;19;20163;-81
2023/10/24 10:52:17;;;;;;;2.42;2.22;;;14.60;99.90;;;;;;7395264;19;20142;-81
2023/10/24 10:55:04;;;;;;;2.45;2.08;;;14.60;99.90;;;;;;7394102;19;20222;-81
2023/10/24 10:57:40;;;;;;;4.53;2.83;;;14.60;99.90;;;;;;7396797;19;20492;-81
2023/10/24 11:00:08;;;;;;;2.90;2.63;;;14.70;99.90;;;;;;7395433;19;20148;-80
2023/10/24 11:03:02;;;;;;;3.63;2.83;;;14.70;99.90;;;;;;7395136;19;20150;-80
2023/10/24 11:05:37;;;;;;;4.43;2.65;;;14.70;99.90;;;;;;7394662;19;20149;-80
2023/10/24 11:08:06;;;;;;;3.10;2.80;;;14.70;99.90;;;;;;7398911;19;20152;-80
2023/10/24 11:10:55;;;;;;;3.00;2.20;;;14.70;99.90;;;;;;7402031;19;20142;-78
2023/10/24 11:13:40;;;;;;;3.90;2.25;;;14.60;99.90;;;;;;7397178;19;20138;-81
2023/10/24 11:16:10;;;;;;;4.20;2.60;;;14.70;99.90;;;;;;7393688;19;20142;-80
2023/10/24 11:18:37;;;;;;;2.70;1.92;;;14.70;99.90;;;;;;7394076;19;20600;-81
2023/10/24 11:21:07;;;;;;;2.70;2.28;;;14.70;99.90;;;;;;7392728;19;20628;-83
2023/10/24 11:23:33;;;;;;;2.25;2.05;;;14.80;99.90;;;;;;7394378;19;20688;-80
2023/10/24 11:26:00;;;;;;;5.30;4.25;;;14.80;99.90;;;;;;7391859;19;20139;-80
2023/10/24 11:28:27;;;;;;;2.85;2.47;;;14.80;99.90;;;;;;7392798;19;20239;-81
2023/10/24 11:30:57;;;;;;;4.65;2.50;;;14.80;99.90;;;;;;7392072;19;20169;-80
2023/10/24 11:33:24;;;;;;;3.00;2.60;;;14.90;99.90;;;;;;7392356;19;20145;-81
2023/10/24 11:35:50;;;;;;;3.60;2.42;;;14.80;99.90;;;;;;7392780;19;20896;-81
2023/10/24 11:38:16;;;;;;;1.80;1.70;;;14.80;99.90;;;;;;7392052;19;20600;-80
2023/10/24 11:40:46;;;;;;;2.35;2.13;;;14.80;99.90;;;;;;7392491;19;20131;-79
2023/10/24 11:43:14;;;;;;;3.83;2.60;;;14.80;99.90;;;;;;7396400;19;20467;-79
2023/10/24 11:45:40;;;;;;;4.05;2.75;;;14.80;99.90;;;;;;7393552;19;20471;-80
2023/10/24 11:48:06;;;;;;;3.20;2.45;;;14.80;99.90;;;;;;7394197;19;20146;-81
2023/10/24 11:50:43;;;;;;;2.83;2.45;;;14.80;99.90;;;;;;7391995;19;20458;-81
2023/10/24 11:53:10;;;;;;;2.58;2.00;;;14.80;99.90;;;;;;7393879;19;20446;-81
2023/10/24 11:55:36;;;;;;;3.13;2.83;;;14.70;99.90;;;;;;7391147;19;20233;-80
2023/10/24 11:58:05;;;;;;;3.15;2.22;;;14.80;99.90;;;;;;7392416;19;20169;-81
2023/10/24 12:00:31;;;;;;;3.15;2.20;;;14.60;99.90;;;;;;7392867;19;20667;-80
2023/10/24 12:03:04;;;;;;;2.92;2.45;;;14.60;99.90;;;;;;7392865;19;20169;-81
2023/10/24 12:05:31;;;;;;;2.28;1.98;;;14.60;99.90;;;;;;7390954;19;20170;-80
2023/10/24 12:07:58;;;;;;;3.13;2.38;;;14.60;99.90;;;;;;7389883;19;20603;-80
2023/10/24 12:10:28;;;;;;;3.22;2.33;;;14.60;99.90;;;;;;7392117;19;20167;-80
2023/10/24 12:12:59;;;;;;;4.90;2.20;;;14.70;99.90;;;;;;7388663;19;20643;-80
2023/10/24 12:15:26;;;;;;;2.40;2.10;;;14.70;99.90;;;;;;7391495;19;20584;-81
2023/10/24 12:17:52;;;;;;;2.72;2.33;;;14.80;99.90;;;;;;7392300;19;20142;-81
2023/10/24 12:20:20;;;;;;;2.88;2.45;;;14.80;99.90;;;;;;7401208;19;20594;-81
2023/10/24 12:22:47;;;;;;;2.65;2.13;;;14.90;99.90;;;;;;7393208;19;20247;-80
2023/10/24 12:25:17;;;;;;;4.85;2.78;;;14.90;99.90;;;;;;7391894;19;20754;-81
2023/10/24 12:27:45;;;;;;;2.78;2.22;;;15.00;99.90;;;;;;7391718;19;20206;-80
2023/10/24 12:30:13;;;;;;;3.00;2.70;;;14.90;99.90;;;;;;7392052;19;20142;-81
2023/10/24 12:32:39;;;;;;;2.92;2.60;;;15.00;99.90;;;;;;7392950;19;20161;-87
2023/10/24 12:35:06;;;;;;;3.38;2.67;;;15.00;99.90;;;;;;7398624;19;20138;-88
2023/10/24 12:37:33;;;;;;;2.85;2.45;;;15.00;99.90;;;;;;7389397;19;20138;-79
2023/10/24 12:40:01;;;;;;;3.78;2.60;;;15.00;99.90;;;;;;7391193;19;20139;-81
2023/10/24 12:42:27;;;;;;;2.95;2.20;;;15.00;99.90;;;;;;7392393;19;20616;-81
2023/10/24 12:44:54;;;;;;;3.22;2.40;;;15.00;99.90;;;;;;7392615;19;20175;-81
2023/10/24 12:47:20;;;;;;;6.05;2.95;;;15.10;99.90;;;;;;7391431;19;20159;-82
2023/10/24 12:49:46;;;;;;;4.68;2.50;;;14.90;99.90;;;;;;7391414;19;20558;-81